地図

経路データ

SID SEASON NUMBER BASIN SUBBASIN NAME ISO_TIME NATURE LAT LON WMO_WIND WMO_PRES WMO_AGENCY TRACK_TYPE DIST2LAND LANDFALL IFLAG USA_AGENCY USA_ATCF_ID USA_LAT USA_LON USA_RECORD USA_STATUS USA_WIND USA_PRES USA_SSHS USA_R34_NE USA_R34_SE USA_R34_SW USA_R34_NW USA_R50_NE USA_R50_SE USA_R50_SW USA_R50_NW USA_R64_NE USA_R64_SE USA_R64_SW USA_R64_NW USA_POCI USA_ROCI USA_RMW USA_EYE TOKYO_LAT TOKYO_LON TOKYO_GRADE TOKYO_WIND TOKYO_PRES TOKYO_R50_DIR TOKYO_R50_LONG TOKYO_R50_SHORT TOKYO_R30_DIR TOKYO_R30_LONG TOKYO_R30_SHORT TOKYO_LAND CMA_LAT CMA_LON CMA_CAT CMA_WIND CMA_PRES HKO_LAT HKO_LON HKO_CAT HKO_WIND HKO_PRES NEWDELHI_LAT NEWDELHI_LON NEWDELHI_GRADE NEWDELHI_WIND NEWDELHI_PRES NEWDELHI_CI NEWDELHI_DP NEWDELHI_POCI REUNION_LAT REUNION_LON REUNION_TYPE REUNION_WIND REUNION_PRES REUNION_TNUM REUNION_CI REUNION_RMW REUNION_R34_NE REUNION_R34_SE REUNION_R34_SW REUNION_R34_NW REUNION_R50_NE REUNION_R50_SE REUNION_R50_SW REUNION_R50_NW REUNION_R64_NE REUNION_R64_SE REUNION_R64_SW REUNION_R64_NW BOM_LAT BOM_LON BOM_TYPE BOM_WIND BOM_PRES BOM_TNUM BOM_CI BOM_RMW BOM_R34_NE BOM_R34_SE BOM_R34_SW BOM_R34_NW BOM_R50_NE BOM_R50_SE BOM_R50_SW BOM_R50_NW BOM_R64_NE BOM_R64_SE BOM_R64_SW BOM_R64_NW BOM_ROCI BOM_POCI BOM_EYE BOM_POS_METHOD BOM_PRES_METHOD NADI_LAT NADI_LON NADI_CAT NADI_WIND NADI_PRES WELLINGTON_LAT WELLINGTON_LON WELLINGTON_WIND WELLINGTON_PRES DS824_LAT DS824_LON DS824_STAGE DS824_WIND DS824_PRES TD9636_LAT TD9636_LON TD9636_STAGE TD9636_WIND TD9636_PRES TD9635_LAT TD9635_LON TD9635_WIND TD9635_PRES TD9635_ROCI NEUMANN_LAT NEUMANN_LON NEUMANN_CLASS NEUMANN_WIND NEUMANN_PRES MLC_LAT MLC_LON MLC_CLASS MLC_WIND MLC_PRES USA_GUST BOM_GUST BOM_GUST_PER REUNION_GUST REUNION_GUST_PER USA_SEAHGT USA_SEARAD_NE USA_SEARAD_SE USA_SEARAD_SW USA_SEARAD_NW STORM_SPEED STORM_DIR
1919232N14128 1919 25 WP MM NOT_NAMED 1919-08-19 22:00:00 NR 13.8000 127.500 main 281 257 __________O___ -1 13.8000 127.500 4 8 276
1919232N14128 1919 25 WP MM NOT_NAMED 1919-08-20 00:00:00 NR 13.8264 127.235 main 257 233 __________P___ -1 13.8264 127.235 4 8 276
1919232N14128 1919 25 WP MM NOT_NAMED 1919-08-20 03:00:00 NR 13.8683 126.843 main 233 210 __________P___ -1 13.8683 126.843 4 8 277
1919232N14128 1919 25 WP MM NOT_NAMED 1919-08-20 06:00:00 NR 13.9170 126.466 main 210 183 __________P___ -1 13.9170 126.466 4 7 279
1919232N14128 1919 25 WP MM NOT_NAMED 1919-08-20 09:00:00 NR 13.9768 126.112 main 183 173 __________P___ -1 13.9768 126.112 4 7 280
1919232N14128 1919 25 WP MM NOT_NAMED 1919-08-20 10:00:00 NR 14.0000 126.000 main 173 151 __________O___ -1 14.0000 126.000 4 6 283
1919232N14128 1919 25 WP MM NOT_NAMED 1919-08-20 12:00:00 NR 14.0524 125.786 main 152 120 __________P___ -1 14.0524 125.786 4 6 286
1919232N14128 1919 25 WP MM NOT_NAMED 1919-08-20 15:00:00 NR 14.1499 125.467 main 120 87 __________P___ -1 14.1499 125.467 4 7 289
1919232N14128 1919 25 WP MM NOT_NAMED 1919-08-20 18:00:00 NR 14.2761 125.110 main 87 62 __________P___ -1 14.2761 125.110 4 8 290
1919232N14128 1919 25 WP MM NOT_NAMED 1919-08-20 21:00:00 NR 14.4373 124.672 main 62 55 __________P___ -1 14.4373 124.672 4 9 291
1919232N14128 1919 25 WP MM NOT_NAMED 1919-08-20 22:00:00 NR 14.5000 124.500 main 59 57 __________O___ -1 14.5000 124.500 4 12 290
1919232N14128 1919 25 WP MM NOT_NAMED 1919-08-21 00:00:00 NR 14.6330 124.107 main 67 67 __________P___ -1 14.6330 124.107 4 13 289
1919232N14128 1919 25 WP MM NOT_NAMED 1919-08-21 03:00:00 NR 14.8638 123.429 main 95 84 __________P___ -1 14.8638 123.429 4 15 290
1919232N14128 1919 25 WP MM NOT_NAMED 1919-08-21 06:00:00 NR 15.1237 122.674 main 100 44 __________P___ -1 15.1237 122.674 4 16 290
1919232N14128 1919 25 WP MM NOT_NAMED 1919-08-21 09:00:00 NR 15.4037 121.872 main 44 10 __________P___ -1 15.4037 121.872 4 17 290
1919232N14128 1919 25 WP MM NOT_NAMED 1919-08-21 10:00:00 NR 15.5000 121.600 main 10 0 __________O___ -1 15.5000 121.600 4 17 289
1919232N14128 1919 25 WP MM NOT_NAMED 1919-08-21 12:00:00 NR 15.6809 121.052 main 0 0 __________P___ -1 15.6809 121.052 4 17 289
1919232N14128 1919 25 WP MM NOT_NAMED 1919-08-21 15:00:00 NR 15.9649 120.204 main 0 0 __________P___ -1 15.9649 120.204 4 17 290
1919232N14128 1919 25 WP MM NOT_NAMED 1919-08-21 18:00:00 NR 16.2660 119.358 main 42 53 __________P___ -1 16.2660 119.358 4 17 291
1919232N14128 1919 25 WP MM NOT_NAMED 1919-08-21 21:00:00 NR 16.5876 118.553 main 132 142 __________P___ -1 16.5876 118.553 4 17 293
1919232N14128 1919 25 WP MM NOT_NAMED 1919-08-21 22:00:00 NR 16.7000 118.300 main 166 166 __________O___ -1 16.7000 118.300 4 16 297
1919232N14128 1919 25 WP MM NOT_NAMED 1919-08-22 00:00:00 NR 16.9371 117.832 main 223 227 __________P___ -1 16.9371 117.832 4 15 300
1919232N14128 1919 25 WP MM NOT_NAMED 1919-08-22 03:00:00 NR 17.3126 117.181 main 298 308 __________P___ -1 17.3126 117.181 4 14 302
1919232N14128 1919 25 WP MM NOT_NAMED 1919-08-22 06:00:00 NR 17.6981 116.574 main 374 384 __________P___ -1 17.6981 116.574 4 14 304
1919232N14128 1919 25 WP MM NOT_NAMED 1919-08-22 09:00:00 NR 18.0776 115.992 main 451 451 __________P___ -1 18.0776 115.992 4 13 304
1919232N14128 1919 25 WP MM NOT_NAMED 1919-08-22 10:00:00 NR 18.2000 115.800 main 475 450 __________O___ -1 18.2000 115.800 4 14 302
1919232N14128 1919 25 WP MM NOT_NAMED 1919-08-22 12:00:00 NR 18.4409 115.389 main 450 394 __________P___ -1 18.4409 115.389 4 14 302
1919232N14128 1919 25 WP MM NOT_NAMED 1919-08-22 15:00:00 NR 18.7904 114.786 main 394 337 __________P___ -1 18.7904 114.786 4 13 301
1919232N14128 1919 25 WP MM NOT_NAMED 1919-08-22 18:00:00 NR 19.1168 114.208 main 337 283 __________P___ -1 19.1168 114.208 4 12 300
1919232N14128 1919 25 WP MM NOT_NAMED 1919-08-22 21:00:00 NR 19.4108 113.669 main 283 262 __________P___ -1 19.4108 113.669 4 12 300
1919232N14128 1919 25 WP MM NOT_NAMED 1919-08-22 22:00:00 NR 19.5000 113.500 main 262 230 __________O___ -1 19.5000 113.500 4 11 299
1919232N14128 1919 25 WP MM NOT_NAMED 1919-08-23 00:00:00 NR 19.6665 113.182 main 230 181 __________P___ -1 19.6665 113.182 4 10 298
1919232N14128 1919 25 WP MM NOT_NAMED 1919-08-23 03:00:00 NR 19.8852 112.743 main 181 147 __________P___ -1 19.8852 112.743 4 9 297
1919232N14128 1919 25 WP MM NOT_NAMED 1919-08-23 06:00:00 NR 20.0753 112.333 main 147 109 __________P___ -1 20.0753 112.333 4 8 295
1919232N14128 1919 25 WP MM NOT_NAMED 1919-08-23 09:00:00 NR 20.2459 111.934 main 109 104 __________P___ -1 20.2459 111.934 4 8 294
1919232N14128 1919 25 WP MM NOT_NAMED 1919-08-23 10:00:00 NR 20.3000 111.800 main 104 83 __________O___ -1 20.3000 111.800 4 8 293
1919232N14128 1919 25 WP MM NOT_NAMED 1919-08-23 12:00:00 NR 20.4056 111.527 main 83 63 __________P___ -1 20.4056 111.527 4 8 292
1919232N14128 1919 25 WP MM NOT_NAMED 1919-08-23 15:00:00 NR 20.5588 111.108 main 63 30 __________P___ -1 20.5588 111.108 4 9 291
1919232N14128 1919 25 WP MM NOT_NAMED 1919-08-23 18:00:00 NR 20.7071 110.679 main 30 0 __________P___ -1 20.7071 110.679 4 9 290
1919232N14128 1919 25 WP MM NOT_NAMED 1919-08-23 21:00:00 NR 20.8521 110.245 main 0 0 __________P___ -1 20.8521 110.245 4 9 290
1919232N14128 1919 25 WP MM NOT_NAMED 1919-08-23 22:00:00 NR 20.9000 110.100 main 0 __________O___ -1 20.9000 110.100 4 9 290

デジタル台風データ・検索

IBTrACS Databaseについて

本データベースは、米国NOAAが公開する1842年以降の世界の熱帯低気圧のベストトラックデータアーカイブInternational Best Track Archive for Climate Stewardship (IBTrACS)を、ウェブで閲覧しやすい形式に変換したものです。

最終更新日:2021-12-03